createdAt,value
2022-08-17T12:01:55.247Z,96728.03
2022-08-17T12:04:31.237Z,96729.53
2022-08-17T12:07:07.603Z,96719.31
2022-08-17T12:09:43.658Z,96714.91
2022-08-17T12:12:16.380Z,96716.56
2022-08-17T12:15:09.601Z,96701.88
2022-08-17T12:17:42.644Z,96702.25
2022-08-17T12:20:19.485Z,96694.22
2022-08-17T12:22:58.509Z,96685.03
2022-08-17T12:25:36.159Z,96692.78
2022-08-17T12:28:19.849Z,96705.31
2022-08-17T12:30:50.393Z,96695.44
2022-08-17T12:36:25.927Z,96684.41
2022-08-17T12:38:57.050Z,96687.22
2022-08-17T12:41:33.181Z,96674.81
2022-08-17T12:44:03.408Z,96674.84
2022-08-17T12:46:34.401Z,96668.66
2022-08-17T12:49:15.251Z,96666.63
2022-08-17T12:51:46.647Z,96661.25
2022-08-17T12:54:29.037Z,96653.22
2022-08-17T13:05:01.349Z,96624.66
2022-08-17T13:07:33.900Z,96615.06
2022-08-17T13:10:01.932Z,96611.50
2022-08-17T13:12:33.103Z,96608.75
2022-08-17T13:15:01.351Z,96606.59
2022-08-17T13:17:36.457Z,96600.06
2022-08-17T13:20:15.797Z,96592.19
2022-08-17T13:22:51.865Z,96595.47
2022-08-17T13:25:23.019Z,96593.22
2022-08-17T13:27:55.866Z,96593.69
2022-08-17T13:30:29.717Z,96595.63
2022-08-17T13:32:58.891Z,96585.31
2022-08-17T13:35:44.979Z,96585.84
2022-08-17T13:38:39.496Z,96569.03
2022-08-17T13:41:07.387Z,96577.81
2022-08-17T13:43:44.411Z,96589.09
2022-08-17T13:46:18.617Z,96584.19
2022-08-17T13:48:56.845Z,96593.41
2022-08-17T13:51:33.775Z,96596.66
2022-08-17T13:54:06.205Z,96605.31
2022-08-17T13:56:55.858Z,96599.47
2022-08-17T13:59:54.546Z,96602.84
2022-08-17T14:02:27.644Z,96602.41
2022-08-17T14:04:57.493Z,96600.88
2022-08-17T14:07:33.261Z,96586.59
2022-08-17T14:10:06.006Z,96586.25
2022-08-17T14:12:35.534Z,96587.22
2022-08-17T14:15:04.673Z,96587.44
2022-08-17T14:17:36.590Z,96583.31
2022-08-17T14:20:09.160Z,96586.50
2022-08-17T14:22:44.235Z,96576.66
2022-08-17T14:25:15.298Z,96577.41
2022-08-17T14:27:52.308Z,96578.38
2022-08-17T14:30:23.675Z,96580.63
2022-08-17T14:32:51.864Z,96570.09
2022-08-17T14:35:22.097Z,96556.06
2022-08-17T14:37:51.431Z,96561.38
2022-08-17T14:40:20.152Z,96565.00
2022-08-17T14:42:48.078Z,96559.28
2022-08-17T14:45:32.075Z,96562.44
2022-08-17T14:48:03.050Z,96565.06
2022-08-17T14:50:31.730Z,96554.63
2022-08-17T14:53:01.405Z,96553.69
2022-08-17T14:55:29.336Z,96555.41
2022-08-17T14:57:56.985Z,96536.88
2022-08-17T15:00:24.769Z,96536.78
2022-08-17T15:02:56.212Z,96539.56
2022-08-17T15:05:26.253Z,96531.13
2022-08-17T15:07:56.201Z,96527.25
2022-08-17T15:10:26.039Z,96528.00
2022-08-17T15:12:54.017Z,96525.44
2022-08-17T15:15:21.935Z,96524.56
2022-08-17T15:17:49.637Z,96521.66
2022-08-17T15:20:20.003Z,96522.03
2022-08-17T15:22:49.176Z,96504.69
2022-08-17T15:25:19.561Z,96494.88
2022-08-17T15:27:50.720Z,96494.75
2022-08-17T15:30:19.002Z,96491.66
2022-08-17T15:32:54.398Z,96499.44
2022-08-17T15:35:27.235Z,96488.38
2022-08-17T15:37:58.663Z,96479.44
2022-08-17T15:40:26.467Z,96487.47
2022-08-17T15:42:55.595Z,96483.53
2022-08-17T15:45:25.227Z,96480.19
2022-08-17T15:47:53.270Z,96479.41
2022-08-17T15:50:21.105Z,96464.50
2022-08-17T15:52:55.067Z,96449.66
2022-08-17T15:55:25.430Z,96443.09
2022-08-17T15:57:54.753Z,96441.09
2022-08-17T16:00:23.297Z,96424.19
2022-08-17T16:03:44.867Z,96420.31
2022-08-17T16:05:40.738Z,96424.41
2022-08-17T16:08:20.627Z,96469.53
2022-08-17T16:10:49.668Z,96485.03
2022-08-17T16:13:19.574Z,96502.69
2022-08-17T16:15:56.864Z,96518.91
2022-08-17T16:18:28.214Z,96523.91
2022-08-17T16:20:56.890Z,96518.41
2022-08-17T16:23:24.903Z,96527.72
2022-08-17T16:25:54.239Z,96542.06
2022-08-17T16:28:23.541Z,96595.50
2022-08-17T16:31:04.520Z,96640.66
2022-08-17T16:33:32.127Z,96665.94
2022-08-17T16:35:59.754Z,96763.28
2022-08-17T16:38:27.367Z,96787.53
2022-08-17T16:40:54.996Z,96856.03
2022-08-17T16:43:23.934Z,96877.75
2022-08-17T16:45:52.208Z,96990.31
2022-08-17T16:48:49.749Z,96990.31
2022-08-17T16:51:17.906Z,97078.03
2022-08-17T16:53:45.514Z,97061.19
2022-08-17T16:56:22.148Z,97109.06
2022-08-17T16:58:52.319Z,97235.56
2022-08-17T17:01:21.417Z,97287.28
2022-08-17T17:03:58.219Z,97374.81
2022-08-17T17:06:39.969Z,97401.66
2022-08-17T17:09:13.789Z,97319.78
2022-08-17T17:11:43.853Z,97297.53
2022-08-17T17:14:22.373Z,96972.00
2022-08-17T17:16:58.055Z,96975.25
2022-08-17T17:19:35.285Z,96977.09
2022-08-17T17:22:13.776Z,96996.69
2022-08-17T17:24:50.255Z,97006.06
2022-08-17T17:27:34.178Z,97026.56
2022-08-17T17:30:11.944Z,97027.53
2022-08-17T17:32:49.100Z,97030.44
2022-08-17T17:35:23.928Z,97031.56
2022-08-17T17:37:56.388Z,97031.69
2022-08-17T17:40:31.927Z,97038.38
2022-08-17T17:43:20.481Z,97046.03
2022-08-17T17:45:56.348Z,97060.63
2022-08-17T17:48:24.261Z,97070.50
2022-08-17T17:51:05.975Z,97074.72
2022-08-17T17:53:57.325Z,97079.75
2022-08-17T17:56:43.648Z,97084.94
2022-08-17T17:59:23.665Z,97084.22
2022-08-17T18:02:07.023Z,97095.31
2022-08-17T18:04:50.710Z,97105.63
2022-08-17T18:07:32.291Z,97110.50
2022-08-17T18:10:29.268Z,97120.00
2022-08-17T18:13:11.146Z,97118.31
2022-08-17T18:15:47.372Z,97107.19
2022-08-17T18:18:40.093Z,97102.31
2022-08-17T18:21:13.087Z,97107.81
2022-08-17T18:23:46.763Z,97113.06
2022-08-17T18:26:36.676Z,97121.03
2022-08-17T18:29:25.122Z,97137.25
2022-08-17T18:32:31.968Z,97131.53
2022-08-17T18:35:17.973Z,97117.00
2022-08-17T18:37:48.141Z,97114.59
2022-08-17T18:40:30.891Z,97110.25
2022-08-17T18:43:05.070Z,97137.13
2022-08-17T18:45:38.648Z,97147.84
2022-08-17T18:48:22.440Z,97162.66
2022-08-17T18:50:53.778Z,97167.66
2022-08-17T18:53:33.552Z,97163.78
2022-08-17T18:56:21.292Z,97162.41
2022-08-17T18:59:04.444Z,97166.75
2022-08-17T19:01:52.512Z,97171.94
2022-08-17T19:04:37.015Z,97174.09
2022-08-17T19:07:23.683Z,97174.28
2022-08-17T19:09:57.899Z,97165.78
2022-08-17T19:12:31.516Z,97173.47
2022-08-17T19:15:02.223Z,97162.97
2022-08-17T19:17:40.851Z,97169.25
2022-08-17T19:20:17.725Z,97171.06
2022-08-17T19:23:08.564Z,97158.72
2022-08-17T19:25:42.792Z,97160.19
2022-08-17T19:28:22.401Z,97163.91
2022-08-17T19:30:56.274Z,97163.03
2022-08-17T19:33:24.716Z,97158.03
2022-08-17T19:36:04.929Z,97161.78
2022-08-17T19:38:44.490Z,97169.41
2022-08-17T19:41:22.428Z,97177.22
2022-08-17T19:44:07.816Z,97184.56
2022-08-17T19:46:56.036Z,97187.66
2022-08-17T19:49:45.032Z,97182.88
2022-08-17T19:52:35.530Z,97183.22
2022-08-17T19:55:20.551Z,97184.75
2022-08-17T19:58:03.212Z,97188.63
2022-08-17T20:00:38.631Z,97192.84
2022-08-17T20:03:16.688Z,97186.75
2022-08-17T20:06:11.669Z,97169.88
2022-08-17T20:08:40.216Z,97168.69
2022-08-17T20:11:20.061Z,97159.75
2022-08-17T20:13:55.658Z,97151.50
2022-08-17T20:16:23.626Z,97158.03
2022-08-17T20:18:59.333Z,97159.06
2022-08-17T20:21:36.715Z,97154.19
2022-08-17T20:24:18.960Z,97139.50
2022-08-17T20:26:57.990Z,97125.59
2022-08-17T20:29:37.232Z,97127.03
2022-08-17T20:32:21.384Z,97130.84
2022-08-17T20:35:07.539Z,97134.97
2022-08-17T20:37:39.828Z,97136.78
2022-08-17T20:40:22.848Z,97128.19
2022-08-17T20:42:51.844Z,97139.22
2022-08-17T20:46:00.983Z,97118.56
2022-08-17T20:48:38.609Z,97102.59
2022-08-17T20:51:26.978Z,97092.97
2022-08-17T20:54:29.959Z,97094.34
2022-08-17T20:57:00.222Z,97093.84
2022-08-17T21:00:19.418Z,97112.13
2022-08-17T21:02:50.677Z,97104.59
2022-08-17T21:05:37.223Z,97103.03
2022-08-17T21:08:16.374Z,97094.03
2022-08-17T21:10:46.250Z,97094.53
2022-08-17T21:13:44.573Z,97088.84
2022-08-17T21:16:32.450Z,97098.97
2022-08-17T21:19:17.996Z,97095.78
2022-08-17T21:21:57.834Z,97097.78
2022-08-17T21:24:40.106Z,97097.88
2022-08-17T21:27:28.684Z,97090.34
2022-08-17T21:30:22.167Z,97092.38
2022-08-17T21:33:17.813Z,97087.63
2022-08-17T21:35:49.641Z,97087.53
2022-08-17T21:38:21.440Z,97082.97
2022-08-17T21:40:53.805Z,97072.91
2022-08-17T21:43:27.128Z,97073.38
2022-08-17T21:45:59.815Z,97073.22
2022-08-17T21:48:33.248Z,97052.06
2022-08-17T21:51:09.090Z,97017.03
2022-08-17T21:53:44.219Z,96990.63
2022-08-17T21:56:22.157Z,96968.00
2022-08-17T21:58:57.018Z,96988.97
2022-08-17T22:01:28.075Z,97021.66
2022-08-17T22:04:18.969Z,97056.53
2022-08-17T22:06:55.815Z,97079.19
2022-08-17T22:09:28.145Z,97088.28
2022-08-17T22:12:03.406Z,97078.47
2022-08-17T22:14:53.345Z,97080.28
2022-08-17T22:17:24.896Z,97081.72
2022-08-17T22:19:58.266Z,97076.09
2022-08-17T22:22:31.214Z,97076.59
2022-08-17T22:25:04.688Z,97084.94
2022-08-17T22:27:48.952Z,97082.59
2022-08-17T22:30:25.460Z,97080.28
2022-08-17T22:32:53.202Z,97070.47
2022-08-17T22:35:38.847Z,97066.03
2022-08-17T22:38:31.686Z,97057.41
2022-08-17T22:41:41.103Z,97060.38
2022-08-17T22:44:22.210Z,97049.81
2022-08-17T22:46:56.527Z,97061.13
2022-08-17T22:49:28.585Z,97055.97
2022-08-17T22:52:30.086Z,97053.34
2022-08-17T22:55:09.297Z,97054.13
2022-08-17T22:57:44.524Z,97067.81
2022-08-17T23:00:29.894Z,97062.31
2022-08-17T23:03:08.831Z,97064.34
2022-08-17T23:05:37.652Z,97074.38
2022-08-17T23:08:11.006Z,97077.88
2022-08-17T23:10:39.544Z,97078.72
2022-08-17T23:13:07.659Z,97076.06
2022-08-17T23:15:35.513Z,97064.88
2022-08-17T23:18:03.264Z,97073.38
2022-08-17T23:20:34.119Z,97081.22
2022-08-17T23:23:04.544Z,97078.63
2022-08-17T23:25:35.084Z,97086.22
2022-08-17T23:28:05.936Z,97085.78
2022-08-17T23:30:38.617Z,97086.69
2022-08-17T23:33:17.300Z,97083.72
2022-08-17T23:35:44.909Z,97075.44
2022-08-17T23:38:13.775Z,97068.50
2022-08-17T23:40:42.766Z,97069.53
2022-08-17T23:43:24.115Z,97069.28
2022-08-17T23:45:53.870Z,97060.75
2022-08-17T23:48:30.349Z,97064.81
2022-08-17T23:51:11.228Z,97065.31
2022-08-17T23:53:45.771Z,97062.28
2022-08-17T23:56:15.132Z,97060.94
2022-08-17T23:58:44.189Z,97070.81
